Time;durP1;ratioP1;P1;durP2;ratioP2;P2;SDS_P1;SDS_P2;PMS_P1;PMS_P2;Temp;Humidity;BMP_temperature;BMP_pressure;BME280_temperature;BME280_humidity;BME280_pressure;Samples;Min_cycle;Max_cycle;Signal;HPM_P1;HPM_P2
2023/09/17 00:01:54;;;;;;;0.50;0.50;;;15.80;99.90;;;;;;5071337;28;20185;-61
2023/09/17 00:04:20;;;;;;;2.50;1.10;;;15.90;99.90;;;;;;5071176;28;20185;-61
2023/09/17 00:06:45;;;;;;;0.70;0.70;;;15.80;99.90;;;;;;5070954;28;20213;-61
2023/09/17 00:09:11;;;;;;;1.03;0.70;;;15.70;99.90;;;;;;5071496;28;20191;-61
2023/09/17 00:11:36;;;;;;;0.73;0.70;;;15.70;99.90;;;;;;5071308;28;20692;-61
2023/09/17 00:14:03;;;;;;;1.77;0.60;;;15.70;99.90;;;;;;5071307;28;20279;-61
2023/09/17 00:16:31;;;;;;;0.60;0.60;;;15.80;99.90;;;;;;5070776;28;20193;-61
2023/09/17 00:19:00;;;;;;;2.40;1.03;;;15.80;99.90;;;;;;5071219;28;20490;-61
2023/09/17 00:21:25;;;;;;;1.40;1.23;;;15.80;99.90;;;;;;5071430;28;20403;-61
2023/09/17 00:23:51;;;;;;;1.60;1.50;;;15.80;99.90;;;;;;5071408;28;20939;-61
2023/09/17 00:26:17;;;;;;;0.70;0.70;;;15.80;99.90;;;;;;5070933;28;20201;-61
2023/09/17 00:28:42;;;;;;;2.33;1.60;;;15.70;99.90;;;;;;5071145;28;20169;-61
2023/09/17 00:31:08;;;;;;;0.50;0.47;;;15.70;99.90;;;;;;5071113;28;20290;-61
2023/09/17 00:33:34;;;;;;;1.50;1.30;;;15.70;99.90;;;;;;5071194;28;20182;-61
2023/09/17 00:35:59;;;;;;;0.87;0.87;;;15.70;99.90;;;;;;5070800;28;20249;-61
2023/09/17 00:38:25;;;;;;;1.07;1.00;;;15.80;99.90;;;;;;5071106;28;20180;-61
2023/09/17 00:40:51;;;;;;;1.43;1.33;;;15.80;99.90;;;;;;5071053;28;20208;-61
2023/09/17 00:43:17;;;;;;;0.90;0.90;;;15.70;99.90;;;;;;5071041;28;20176;-61
2023/09/17 00:45:44;;;;;;;2.30;2.20;;;15.80;99.90;;;;;;5070615;28;20673;-61
2023/09/17 00:48:11;;;;;;;1.40;1.13;;;15.90;99.90;;;;;;5070926;28;20904;-61
2023/09/17 00:50:38;;;;;;;1.13;0.60;;;16.10;99.90;;;;;;5071138;28;20843;-61
2023/09/17 00:53:05;;;;;;;2.80;0.80;;;16.20;99.90;;;;;;5070998;28;20456;-61
2023/09/17 00:55:31;;;;;;;0.80;0.80;;;16.20;99.90;;;;;;5070642;28;20582;-61
2023/09/17 00:57:58;;;;;;;0.53;0.50;;;16.30;99.90;;;;;;5072185;28;20805;-61
2023/09/17 01:00:25;;;;;;;14.13;1.53;;;16.40;99.90;;;;;;5070821;28;20487;-61
2023/09/17 01:02:52;;;;;;;1.10;0.77;;;16.50;99.90;;;;;;5070837;28;20909;-61
2023/09/17 01:05:18;;;;;;;1.30;1.20;;;16.60;99.90;;;;;;5070427;28;20880;-61
2023/09/17 01:07:45;;;;;;;3.83;1.20;;;16.60;99.90;;;;;;5070897;28;20416;-61
2023/09/17 01:10:11;;;;;;;1.50;1.37;;;16.50;99.90;;;;;;5070857;28;20614;-61
2023/09/17 01:12:38;;;;;;;0.73;0.70;;;16.50;99.90;;;;;;5070561;28;20450;-62
2023/09/17 01:15:07;;;;;;;2.30;1.23;;;16.40;99.90;;;;;;5071107;28;20418;-61
2023/09/17 01:17:34;;;;;;;1.33;1.23;;;16.30;99.90;;;;;;5074259;28;20923;-61
2023/09/17 01:20:00;;;;;;;1.33;0.90;;;16.20;99.90;;;;;;5074341;28;20404;-61
2023/09/17 01:22:38;;;;;;;2.13;0.80;;;16.20;99.90;;;;;;5074311;28;20461;-61
2023/09/17 01:25:07;;;;;;;1.03;0.93;;;16.20;99.90;;;;;;5056581;28;20486;-61
2023/09/17 01:27:39;;;;;;;1.57;1.47;;;16.20;99.90;;;;;;5073973;28;20408;-61
2023/09/17 01:30:08;;;;;;;1.57;1.47;;;16.30;99.90;;;;;;5074161;28;20417;-61
2023/09/17 01:32:34;;;;;;;1.77;1.43;;;16.40;99.90;;;;;;5074163;28;20955;-61
2023/09/17 01:34:59;;;;;;;0.80;0.80;;;16.40;99.90;;;;;;5073765;28;20442;-61
2023/09/17 01:37:36;;;;;;;1.87;1.30;;;16.40;99.90;;;;;;5073776;28;20174;-61
2023/09/17 01:40:10;;;;;;;1.10;1.07;;;16.50;99.90;;;;;;5073799;28;20182;-61
2023/09/17 01:42:39;;;;;;;0.80;0.80;;;16.50;99.90;;;;;;5073856;28;20769;-61
2023/09/17 01:45:07;;;;;;;1.77;1.67;;;16.50;99.90;;;;;;5073458;28;20412;-61
2023/09/17 01:47:34;;;;;;;1.17;1.17;;;16.40;99.90;;;;;;5073775;28;20506;-61
2023/09/17 01:50:00;;;;;;;1.13;0.90;;;16.30;99.90;;;;;;5073719;28;20477;-61
2023/09/17 01:52:32;;;;;;;1.10;1.00;;;16.30;99.90;;;;;;5073968;28;20467;-61
2023/09/17 01:54:58;;;;;;;0.93;0.93;;;16.30;99.90;;;;;;5073639;28;20450;-61
2023/09/17 01:57:24;;;;;;;0.83;0.83;;;16.40;99.90;;;;;;5073259;28;20495;-61
2023/09/17 01:59:49;;;;;;;2.37;1.17;;;16.40;99.90;;;;;;5073548;28;20499;-61
2023/09/17 02:02:15;;;;;;;1.77;1.10;;;16.40;99.90;;;;;;5071945;28;20245;-61
2023/09/17 02:04:41;;;;;;;0.70;0.70;;;16.30;99.90;;;;;;5073471;28;20931;-61
2023/09/17 02:07:07;;;;;;;2.73;2.53;;;16.40;99.90;;;;;;5072875;28;20227;-61
2023/09/17 02:09:33;;;;;;;1.03;0.80;;;16.30;99.90;;;;;;5073438;28;20416;-61
2023/09/17 02:11:59;;;;;;;1.80;1.20;;;16.30;99.90;;;;;;5073083;28;20501;-61
2023/09/17 02:14:24;;;;;;;1.20;1.17;;;16.20;99.90;;;;;;5073207;28;20173;-61
2023/09/17 02:16:51;;;;;;;1.00;0.90;;;16.10;99.90;;;;;;5072819;28;20189;-61
2023/09/17 02:19:16;;;;;;;5.27;1.20;;;16.00;99.90;;;;;;5073200;28;20180;-62
2023/09/17 02:21:42;;;;;;;1.23;1.10;;;16.00;99.90;;;;;;5073116;28;20416;-62
2023/09/17 02:24:08;;;;;;;0.60;0.60;;;16.00;99.90;;;;;;5073118;28;20180;-62
2023/09/17 02:26:34;;;;;;;0.80;0.80;;;16.00;99.90;;;;;;5072530;28;20581;-62
2023/09/17 02:29:00;;;;;;;1.33;1.17;;;16.00;99.90;;;;;;5072945;28;20485;-62
2023/09/17 02:31:25;;;;;;;1.07;0.70;;;16.00;99.90;;;;;;5072781;28;20209;-62
2023/09/17 02:33:51;;;;;;;1.87;1.10;;;16.10;99.90;;;;;;5072851;28;20165;-62
2023/09/17 02:36:16;;;;;;;0.97;0.87;;;16.10;99.90;;;;;;5072443;28;20198;-62
2023/09/17 02:38:42;;;;;;;0.80;0.80;;;16.20;99.90;;;;;;5072700;28;20594;-62
2023/09/17 02:41:08;;;;;;;0.50;0.50;;;16.20;99.90;;;;;;5072635;28;20280;-62
2023/09/17 02:43:36;;;;;;;0.80;0.80;;;16.20;99.90;;;;;;5072619;28;20182;-62
2023/09/17 02:46:04;;;;;;;1.80;1.40;;;16.10;99.90;;;;;;5072222;28;20248;-62
2023/09/17 02:48:34;;;;;;;0.70;0.70;;;16.00;99.90;;;;;;5072586;28;20400;-62
2023/09/17 02:51:02;;;;;;;0.50;0.50;;;15.90;99.90;;;;;;5072499;28;20411;-61
2023/09/17 02:53:27;;;;;;;0.67;0.67;;;15.80;99.90;;;;;;5072727;28;20447;-62
2023/09/17 02:55:54;;;;;;;1.23;0.80;;;15.90;99.90;;;;;;5071942;28;20519;-62
2023/09/17 02:58:20;;;;;;;0.77;0.63;;;16.00;99.90;;;;;;5072277;28;20172;-62
2023/09/17 03:00:46;;;;;;;0.50;0.50;;;16.00;99.90;;;;;;5070761;28;20487;-62
2023/09/17 03:03:12;;;;;;;0.97;0.63;;;16.00;99.90;;;;;;5072657;28;20408;-62
2023/09/17 03:05:38;;;;;;;1.00;0.87;;;15.90;99.90;;;;;;5071767;28;20874;-62
2023/09/17 03:08:09;;;;;;;1.20;1.00;;;15.90;99.90;;;;;;5072116;28;20925;-62
2023/09/17 03:10:41;;;;;;;0.80;0.80;;;15.80;99.90;;;;;;5072146;28;20188;-62
2023/09/17 03:13:09;;;;;;;2.30;2.03;;;15.80;99.90;;;;;;5072078;28;20971;-62
2023/09/17 03:15:35;;;;;;;2.00;1.87;;;15.70;99.90;;;;;;5071846;28;20510;-62
2023/09/17 03:18:01;;;;;;;0.90;0.90;;;15.80;99.90;;;;;;5072015;28;20454;-62
2023/09/17 03:20:27;;;;;;;1.10;1.10;;;15.80;99.90;;;;;;5072104;28;20169;-62
2023/09/17 03:22:53;;;;;;;2.00;0.90;;;15.80;99.90;;;;;;5072023;28;20233;-62
2023/09/17 03:25:19;;;;;;;0.83;0.83;;;15.90;99.90;;;;;;5071540;28;20810;-62
2023/09/17 03:27:45;;;;;;;1.83;0.90;;;15.90;99.90;;;;;;5071936;28;20412;-62
2023/09/17 03:30:12;;;;;;;9.80;1.70;;;16.00;99.90;;;;;;5071817;28;20550;-62
2023/09/17 03:32:38;;;;;;;0.60;0.60;;;16.00;99.90;;;;;;5071625;28;20543;-62
2023/09/17 03:35:06;;;;;;;1.70;0.93;;;15.90;99.90;;;;;;5071471;28;20436;-62
2023/09/17 03:37:31;;;;;;;1.80;1.23;;;15.90;99.90;;;;;;5072647;28;20186;-62
2023/09/17 03:40:11;;;;;;;2.00;0.93;;;15.80;99.90;;;;;;5071538;28;20415;-62
2023/09/17 03:42:38;;;;;;;0.70;0.70;;;15.70;99.90;;;;;;5071622;28;20181;-62
2023/09/17 03:45:05;;;;;;;0.80;0.80;;;15.60;99.90;;;;;;5071166;28;20411;-62
2023/09/17 03:47:41;;;;;;;0.70;0.50;;;15.60;99.90;;;;;;5071510;28;20509;-62
2023/09/17 03:50:11;;;;;;;1.43;0.90;;;15.50;99.90;;;;;;5071547;28;20445;-62
2023/09/17 03:52:39;;;;;;;1.57;1.43;;;15.60;99.90;;;;;;5071560;28;21201;-62
2023/09/17 03:55:06;;;;;;;2.13;0.90;;;15.50;99.90;;;;;;5071145;28;20411;-62
2023/09/17 03:57:36;;;;;;;1.10;1.00;;;15.50;99.90;;;;;;5071462;28;20896;-62
2023/09/17 04:00:14;;;;;;;1.00;1.00;;;15.50;99.90;;;;;;5071396;28;20400;-62
2023/09/17 04:02:41;;;;;;;3.03;1.53;;;15.60;99.90;;;;;;5072097;28;20439;-62
2023/09/17 04:05:10;;;;;;;1.03;1.03;;;15.60;99.90;;;;;;5071177;28;20835;-61
2023/09/17 04:07:37;;;;;;;1.47;1.20;;;15.50;99.90;;;;;;5071942;28;20407;-62
2023/09/17 04:10:05;;;;;;;4.97;1.47;;;15.50;99.90;;;;;;5071228;28;20495;-62
2023/09/17 04:12:32;;;;;;;3.80;0.70;;;15.50;99.90;;;;;;5071275;28;20503;-62
2023/09/17 04:14:58;;;;;;;1.13;1.13;;;15.40;99.90;;;;;;5071081;28;20411;-62
2023/09/17 04:17:24;;;;;;;0.83;0.83;;;15.30;99.90;;;;;;5071171;28;20459;-62
2023/09/17 04:19:50;;;;;;;1.23;1.13;;;15.30;99.90;;;;;;5071257;28;20181;-62
2023/09/17 04:22:16;;;;;;;1.23;0.87;;;15.40;99.90;;;;;;5071215;28;20418;-62
2023/09/17 04:24:43;;;;;;;1.10;1.10;;;15.40;99.90;;;;;;5071067;28;20419;-62
2023/09/17 04:27:08;;;;;;;1.27;1.17;;;15.40;99.90;;;;;;5070827;28;20995;-62
2023/09/17 04:29:35;;;;;;;1.07;0.97;;;15.50;99.90;;;;;;5071234;28;20403;-62
2023/09/17 04:32:01;;;;;;;0.70;0.70;;;15.40;99.90;;;;;;5071145;28;20208;-62
2023/09/17 04:34:27;;;;;;;1.17;1.17;;;15.40;99.90;;;;;;5071170;28;20416;-62
2023/09/17 04:36:52;;;;;;;1.20;1.10;;;15.40;99.90;;;;;;5070718;28;20199;-61
2023/09/17 04:39:18;;;;;;;1.47;1.37;;;15.30;99.90;;;;;;5069649;28;20183;-62
2023/09/17 04:41:45;;;;;;;1.07;1.00;;;15.30;99.90;;;;;;5071042;28;20237;-62
2023/09/17 04:44:11;;;;;;;0.80;0.70;;;15.40;99.90;;;;;;5070967;28;20650;-63
2023/09/17 04:46:40;;;;;;;2.83;0.87;;;15.50;99.90;;;;;;5067963;28;20463;-62
2023/09/17 04:49:06;;;;;;;4.10;1.23;;;15.50;99.90;;;;;;5069476;28;20422;-63
2023/09/17 04:51:33;;;;;;;0.57;0.57;;;15.40;99.90;;;;;;5072349;28;20434;-62
2023/09/17 04:53:59;;;;;;;0.80;0.80;;;15.40;99.90;;;;;;5074641;28;20412;-62
2023/09/17 04:56:25;;;;;;;1.63;1.53;;;15.40;99.90;;;;;;5074531;28;20423;-62
2023/09/17 04:58:50;;;;;;;1.90;1.27;;;15.40;99.90;;;;;;5073216;28;20177;-63
2023/09/17 05:01:16;;;;;;;0.60;0.60;;;15.40;99.90;;;;;;5073582;28;20179;-62
2023/09/17 05:03:42;;;;;;;1.27;1.23;;;15.40;99.90;;;;;;5054590;28;20222;-63
2023/09/17 05:06:08;;;;;;;2.97;0.90;;;15.30;99.90;;;;;;5054467;28;20440;-63
2023/09/17 05:08:34;;;;;;;1.17;0.87;;;15.30;99.90;;;;;;5054652;28;20212;-63
2023/09/17 05:11:00;;;;;;;2.83;0.83;;;15.40;99.90;;;;;;5054602;28;20412;-62
2023/09/17 05:13:26;;;;;;;0.70;0.70;;;15.40;99.90;;;;;;5054476;28;20205;-63
2023/09/17 05:15:51;;;;;;;1.40;1.30;;;15.40;99.90;;;;;;5054171;28;20190;-63
2023/09/17 05:18:17;;;;;;;5.03;1.13;;;15.40;99.90;;;;;;5054286;28;20670;-63
2023/09/17 05:20:44;;;;;;;2.67;1.03;;;15.50;99.90;;;;;;5054645;28;20163;-63
2023/09/17 05:23:13;;;;;;;1.27;0.93;;;15.50;99.90;;;;;;5054042;28;20239;-63
2023/09/17 05:25:38;;;;;;;0.70;0.70;;;15.50;99.90;;;;;;5056586;28;20451;-61
2023/09/17 05:28:07;;;;;;;0.83;0.83;;;15.50;99.90;;;;;;5073375;28;20419;-62
2023/09/17 05:30:34;;;;;;;0.80;0.80;;;15.60;99.90;;;;;;5074066;28;20177;-62
2023/09/17 05:33:00;;;;;;;1.13;1.00;;;15.70;99.90;;;;;;5073875;28;20443;-62
2023/09/17 05:35:25;;;;;;;0.73;0.73;;;15.80;99.90;;;;;;5073569;28;20443;-63
2023/09/17 05:37:51;;;;;;;1.00;0.87;;;15.90;99.90;;;;;;5073847;28;20192;-63
2023/09/17 05:40:17;;;;;;;0.70;0.60;;;16.10;99.90;;;;;;5073869;28;20188;-63
2023/09/17 05:42:43;;;;;;;0.90;0.90;;;16.20;99.90;;;;;;5073878;28;20185;-63
2023/09/17 05:45:09;;;;;;;0.70;0.70;;;16.30;99.90;;;;;;5073500;28;20182;-62
2023/09/17 05:47:35;;;;;;;0.87;0.87;;;16.30;99.90;;;;;;5073744;28;20549;-62
2023/09/17 05:50:01;;;;;;;0.90;0.83;;;16.30;99.90;;;;;;5070959;28;20554;-62
2023/09/17 05:52:26;;;;;;;2.70;2.50;;;16.40;99.90;;;;;;5072045;28;20195;-62
2023/09/17 05:54:52;;;;;;;0.87;0.83;;;16.50;99.90;;;;;;5067315;28;20198;-62
2023/09/17 05:57:18;;;;;;;1.63;0.70;;;16.60;99.90;;;;;;5071833;28;20205;-62
2023/09/17 05:59:43;;;;;;;0.63;0.53;;;16.70;99.90;;;;;;5067762;28;20252;-64
2023/09/17 06:02:11;;;;;;;1.87;0.73;;;16.70;99.90;;;;;;5062229;28;20185;-63
2023/09/17 06:04:37;;;;;;;0.83;0.60;;;16.80;99.90;;;;;;5055896;28;20186;-63
2023/09/17 06:07:03;;;;;;;0.90;0.63;;;16.90;99.90;;;;;;5052895;28;20970;-63
2023/09/17 06:09:30;;;;;;;0.40;0.40;;;16.90;99.90;;;;;;5053404;28;20162;-63
2023/09/17 06:11:57;;;;;;;1.13;1.03;;;17.00;99.90;;;;;;5053274;28;20484;-63
2023/09/17 06:14:23;;;;;;;1.23;0.87;;;17.00;99.90;;;;;;5055687;28;20837;-62
2023/09/17 06:16:48;;;;;;;0.87;0.80;;;17.00;99.90;;;;;;5067342;28;20428;-62
2023/09/17 06:19:14;;;;;;;1.73;1.63;;;17.10;99.90;;;;;;5073178;28;20460;-63
2023/09/17 06:21:41;;;;;;;0.70;0.63;;;17.20;99.90;;;;;;5073304;28;20184;-62
2023/09/17 06:24:07;;;;;;;1.07;0.97;;;17.40;99.90;;;;;;5073090;28;20448;-63
2023/09/17 06:26:33;;;;;;;1.13;0.83;;;17.50;99.90;;;;;;5062062;28;21081;-63
2023/09/17 06:28:59;;;;;;;5.97;1.27;;;17.70;99.90;;;;;;5053082;28;20526;-62
2023/09/17 06:31:25;;;;;;;2.93;1.07;;;17.90;99.90;;;;;;5052148;28;20429;-63
2023/09/17 06:33:51;;;;;;;0.50;0.50;;;18.10;99.90;;;;;;5052692;28;20200;-63
2023/09/17 06:36:17;;;;;;;0.60;0.60;;;18.40;99.90;;;;;;5052333;28;20967;-63
2023/09/17 06:38:42;;;;;;;1.00;0.90;;;18.60;99.90;;;;;;5052716;28;20412;-63
2023/09/17 06:41:08;;;;;;;1.67;1.53;;;18.80;99.90;;;;;;5052716;28;20166;-62
2023/09/17 06:43:33;;;;;;;1.70;1.60;;;19.10;99.90;;;;;;5052784;28;20182;-63
2023/09/17 06:45:59;;;;;;;2.50;1.60;;;19.40;99.90;;;;;;5051804;28;20198;-63
2023/09/17 06:48:28;;;;;;;1.03;1.00;;;19.60;99.90;;;;;;5053095;28;20178;-62
2023/09/17 06:50:55;;;;;;;1.37;1.13;;;19.70;99.90;;;;;;5052612;28;20562;-63
2023/09/17 06:53:21;;;;;;;0.50;0.50;;;19.80;99.90;;;;;;5052501;28;20834;-63
2023/09/17 06:55:47;;;;;;;0.73;0.70;;;20.00;99.90;;;;;;5052081;28;20431;-63
2023/09/17 06:58:16;;;;;;;1.80;1.60;;;20.30;99.90;;;;;;5052349;28;20166;-63
2023/09/17 07:00:42;;;;;;;0.87;0.87;;;20.70;99.90;;;;;;5052295;28;20252;-63
2023/09/17 07:03:08;;;;;;;1.23;1.13;;;21.20;99.20;;;;;;5052309;28;20440;-63
2023/09/17 07:05:33;;;;;;;1.27;1.17;;;21.80;98.50;;;;;;5051711;28;20480;-63
2023/09/17 07:07:59;;;;;;;1.40;1.17;;;22.40;96.90;;;;;;5052315;28;20557;-63
2023/09/17 07:10:25;;;;;;;1.33;0.90;;;23.00;96.10;;;;;;5052340;28;20600;-63
2023/09/17 07:12:51;;;;;;;1.00;1.00;;;23.60;95.10;;;;;;5051272;28;20434;-63
2023/09/17 07:15:18;;;;;;;2.33;1.40;;;24.30;93.70;;;;;;5051629;28;20536;-63
2023/09/17 07:17:44;;;;;;;0.93;0.93;;;25.00;92.80;;;;;;5051760;28;20416;-63
2023/09/17 07:20:13;;;;;;;1.20;1.10;;;25.90;92.10;;;;;;5051890;28;20407;-65
2023/09/17 07:22:39;;;;;;;1.00;1.00;;;27.00;90.00;;;;;;5051700;28;20442;-65
2023/09/17 07:25:05;;;;;;;1.13;1.03;;;28.50;84.70;;;;;;5051540;28;20404;-65
2023/09/17 07:27:33;;;;;;;2.17;0.80;;;29.90;79.20;;;;;;5051811;28;20466;-65
2023/09/17 07:29:58;;;;;;;2.93;0.97;;;31.50;73.70;;;;;;5051327;28;20202;-64
2023/09/17 07:32:28;;;;;;;0.97;0.80;;;32.90;68.40;;;;;;5051766;28;21055;-65
2023/09/17 07:34:53;;;;;;;1.20;1.10;;;34.20;62.80;;;;;;5051641;28;20192;-63
2023/09/17 07:37:20;;;;;;;1.50;0.97;;;35.20;57.30;;;;;;5052026;28;20405;-63
2023/09/17 07:39:47;;;;;;;1.03;0.80;;;35.60;55.00;;;;;;5051256;28;20211;-64
2023/09/17 07:42:13;;;;;;;2.40;0.77;;;36.20;52.90;;;;;;5050458;28;20812;-64
2023/09/17 07:44:40;;;;;;;2.50;1.13;;;36.90;52.20;;;;;;5049808;28;21117;-65
2023/09/17 07:47:09;;;;;;;2.37;1.00;;;37.60;50.60;;;;;;5049717;28;20428;-65
2023/09/17 07:49:36;;;;;;;0.80;0.80;;;38.40;47.70;;;;;;5049972;28;20961;-65
2023/09/17 07:52:03;;;;;;;1.63;1.07;;;39.10;46.30;;;;;;5049968;28;20460;-65
2023/09/17 07:54:30;;;;;;;0.70;0.70;;;39.50;45.10;;;;;;5049929;28;20948;-65
2023/09/17 07:56:56;;;;;;;0.90;0.80;;;40.00;43.90;;;;;;5049774;28;20421;-65
2023/09/17 07:59:21;;;;;;;1.67;1.57;;;40.30;42.90;;;;;;5071487;28;20410;-65
2023/09/17 08:01:49;;;;;;;0.93;0.80;;;40.60;42.00;;;;;;5071501;28;20207;-65
2023/09/17 08:04:15;;;;;;;1.50;1.10;;;40.60;40.70;;;;;;5071449;28;20188;-65
2023/09/17 08:06:41;;;;;;;1.50;1.10;;;40.20;41.20;;;;;;5070933;28;20960;-65
2023/09/17 08:09:07;;;;;;;2.20;1.30;;;40.10;41.30;;;;;;5071406;28;20203;-65
2023/09/17 08:11:32;;;;;;;1.23;0.70;;;40.00;42.10;;;;;;5071192;28;20619;-65
2023/09/17 08:13:59;;;;;;;1.37;0.70;;;39.90;42.20;;;;;;5071353;28;20172;-65
2023/09/17 08:16:25;;;;;;;4.33;1.27;;;40.00;41.60;;;;;;5070950;28;20701;-64
2023/09/17 08:18:51;;;;;;;1.43;0.80;;;40.20;41.60;;;;;;5071404;28;20411;-65
2023/09/17 08:21:18;;;;;;;1.57;0.70;;;40.20;39.80;;;;;;5071363;28;20396;-65
2023/09/17 08:23:45;;;;;;;1.97;1.20;;;40.50;40.50;;;;;;5071298;28;20658;-65
2023/09/17 08:26:11;;;;;;;1.40;1.30;;;40.80;40.10;;;;;;5074817;28;20515;-65
2023/09/17 08:28:37;;;;;;;0.77;0.77;;;41.20;37.30;;;;;;5075333;28;20441;-65
2023/09/17 08:31:03;;;;;;;1.33;0.83;;;41.50;37.30;;;;;;5075352;28;20164;-66
2023/09/17 08:33:29;;;;;;;1.50;1.33;;;41.70;37.20;;;;;;5075290;28;20529;-65
2023/09/17 08:35:54;;;;;;;3.60;1.20;;;42.00;38.60;;;;;;5074876;28;20177;-64
2023/09/17 08:38:20;;;;;;;1.73;1.00;;;42.10;37.50;;;;;;5075171;28;20237;-65
2023/09/17 08:40:47;;;;;;;1.77;1.03;;;42.40;36.50;;;;;;5075033;28;20642;-65
2023/09/17 08:43:14;;;;;;;0.80;0.80;;;42.20;34.20;;;;;;5075088;28;20173;-65
2023/09/17 08:45:41;;;;;;;2.20;0.80;;;41.40;35.40;;;;;;5074622;28;20427;-65
2023/09/17 08:48:07;;;;;;;0.93;0.80;;;39.70;35.10;;;;;;5074978;28;20399;-65
2023/09/17 08:50:35;;;;;;;0.70;0.70;;;38.90;35.40;;;;;;5074904;28;20400;-65
2023/09/17 08:53:07;;;;;;;1.60;0.87;;;36.90;36.30;;;;;;5074145;28;20447;-65
2023/09/17 08:55:33;;;;;;;1.20;1.10;;;35.70;40.10;;;;;;5074559;28;20415;-65
2023/09/17 08:58:35;;;;;;;1.23;0.80;;;35.30;39.50;;;;;;5075471;28;20502;-68
2023/09/17 09:01:03;;;;;;;0.70;0.60;;;35.30;41.80;;;;;;5058181;28;20423;-68
2023/09/17 09:03:33;;;;;;;3.33;0.90;;;35.00;41.70;;;;;;5074849;28;20411;-71
2023/09/17 09:06:00;;;;;;;1.70;1.60;;;33.90;42.70;;;;;;5073886;28;20882;-66
2023/09/17 09:08:26;;;;;;;1.20;1.03;;;32.50;44.90;;;;;;5074508;28;20498;-64
2023/09/17 09:10:51;;;;;;;1.23;1.13;;;31.50;46.50;;;;;;5074516;28;20492;-64
2023/09/17 09:13:18;;;;;;;0.70;0.70;;;31.90;46.00;;;;;;5074571;28;20646;-64
2023/09/17 09:15:45;;;;;;;1.20;1.10;;;32.80;43.80;;;;;;5073909;28;20204;-64
2023/09/17 09:18:11;;;;;;;0.80;0.80;;;33.30;42.10;;;;;;5074177;28;20931;-64
2023/09/17 09:20:38;;;;;;;0.80;0.63;;;33.40;42.40;;;;;;5074448;28;20496;-64
2023/09/17 09:23:05;;;;;;;0.70;0.70;;;34.30;43.10;;;;;;5074301;28;20493;-65
2023/09/17 09:25:31;;;;;;;1.17;0.63;;;35.30;40.70;;;;;;5074010;28;20427;-64
2023/09/17 09:28:04;;;;;;;2.30;1.07;;;34.60;40.40;;;;;;5074075;28;20408;-64
2023/09/17 09:30:30;;;;;;;2.00;1.30;;;34.50;41.60;;;;;;5074099;28;20411;-64
2023/09/17 09:32:56;;;;;;;1.07;0.97;;;34.60;42.30;;;;;;5073880;28;20489;-65
2023/09/17 09:35:23;;;;;;;0.90;0.80;;;34.70;41.10;;;;;;5073302;28;20412;-65
2023/09/17 09:37:51;;;;;;;2.23;1.43;;;34.80;41.70;;;;;;5073450;28;20453;-65
2023/09/17 09:40:17;;;;;;;1.40;0.90;;;35.10;40.10;;;;;;5073947;28;20408;-64
2023/09/17 09:42:43;;;;;;;0.87;0.80;;;34.90;40.70;;;;;;5073752;28;20504;-64
2023/09/17 09:45:15;;;;;;;1.20;1.10;;;34.40;42.00;;;;;;5073162;28;20486;-65
2023/09/17 09:47:49;;;;;;;1.00;1.00;;;34.10;42.00;;;;;;5073551;28;20759;-64
2023/09/17 09:50:24;;;;;;;1.07;0.93;;;33.90;41.90;;;;;;5062045;28;20454;-64
2023/09/17 09:52:50;;;;;;;1.00;0.90;;;34.40;42.50;;;;;;5053632;28;20452;-64
2023/09/17 09:55:16;;;;;;;2.87;1.10;;;34.80;41.70;;;;;;5053367;28;20503;-64
2023/09/17 09:57:42;;;;;;;1.77;1.37;;;34.50;41.30;;;;;;5053278;28;20439;-65
2023/09/17 10:00:18;;;;;;;0.90;0.90;;;34.30;41.90;;;;;;5053438;28;20220;-64
2023/09/17 10:02:45;;;;;;;1.27;1.13;;;34.10;42.30;;;;;;5053391;28;20412;-64
2023/09/17 10:05:12;;;;;;;4.77;1.17;;;34.20;42.00;;;;;;5053151;28;20444;-65
2023/09/17 10:07:39;;;;;;;2.43;1.23;;;34.40;42.80;;;;;;5053398;28;20400;-64
2023/09/17 10:10:05;;;;;;;1.83;1.33;;;33.80;42.80;;;;;;5053275;28;20484;-65
2023/09/17 10:12:31;;;;;;;1.60;1.17;;;33.20;43.20;;;;;;5053167;28;20980;-64
2023/09/17 10:14:57;;;;;;;6.43;2.30;;;33.20;43.90;;;;;;5052861;28;20501;-64
2023/09/17 10:17:25;;;;;;;0.93;0.83;;;33.30;43.00;;;;;;5053750;28;20201;-64
2023/09/17 10:19:52;;;;;;;0.90;0.90;;;32.70;43.90;;;;;;5053732;28;20470;-65
2023/09/17 10:22:20;;;;;;;2.77;1.20;;;31.70;44.50;;;;;;5053150;28;20448;-64
2023/09/17 10:24:47;;;;;;;0.80;0.73;;;30.70;46.60;;;;;;5053043;28;20413;-65
2023/09/17 10:27:15;;;;;;;0.90;0.90;;;30.60;47.00;;;;;;5052623;28;20945;-64
2023/09/17 10:29:43;;;;;;;1.60;1.10;;;30.80;46.50;;;;;;5052903;28;20865;-63
2023/09/17 10:32:09;;;;;;;0.93;0.77;;;30.90;46.70;;;;;;5052874;28;20458;-64
2023/09/17 10:34:35;;;;;;;0.90;0.90;;;30.70;47.80;;;;;;5052895;28;20823;-64
2023/09/17 10:37:03;;;;;;;1.10;1.00;;;29.80;47.50;;;;;;5052450;28;20424;-64
2023/09/17 10:39:30;;;;;;;1.77;1.67;;;29.00;48.60;;;;;;5053128;28;20416;-64
2023/09/17 10:41:58;;;;;;;0.93;0.93;;;28.50;50.20;;;;;;5052733;28;20893;-64
2023/09/17 10:44:25;;;;;;;1.27;1.00;;;28.70;50.90;;;;;;5052627;28;20913;-64
2023/09/17 10:46:53;;;;;;;1.27;0.80;;;28.80;50.10;;;;;;5052285;28;20432;-64
2023/09/17 10:49:20;;;;;;;2.13;1.00;;;29.00;49.20;;;;;;5052693;28;20695;-64
2023/09/17 10:51:48;;;;;;;1.67;1.20;;;29.20;50.60;;;;;;5052530;28;20413;-64
2023/09/17 10:54:14;;;;;;;1.10;0.83;;;28.80;49.90;;;;;;5052476;28;20423;-64
2023/09/17 10:56:42;;;;;;;0.70;0.70;;;28.50;48.90;;;;;;5052390;28;20871;-63
2023/09/17 10:59:12;;;;;;;2.73;1.50;;;28.20;50.60;;;;;;5052540;28;20412;-64
2023/09/17 11:01:41;;;;;;;1.87;1.57;;;27.80;50.80;;;;;;5052501;28;20901;-64
2023/09/17 11:04:11;;;;;;;1.10;0.93;;;27.30;53.50;;;;;;5052421;28;20409;-64
2023/09/17 11:06:39;;;;;;;1.10;0.80;;;27.30;54.30;;;;;;5051839;28;20444;-63
2023/09/17 11:09:05;;;;;;;1.07;0.93;;;27.50;53.70;;;;;;5052298;28;20445;-63
2023/09/17 11:11:34;;;;;;;1.13;1.03;;;27.80;55.50;;;;;;5052209;28;20770;-63
2023/09/17 11:14:06;;;;;;;0.93;0.77;;;28.00;53.20;;;;;;5052165;28;20917;-63
2023/09/17 11:16:34;;;;;;;2.73;0.93;;;28.30;54.40;;;;;;5051839;28;20512;-63
2023/09/17 11:19:11;;;;;;;1.13;1.00;;;28.40;54.60;;;;;;5052037;28;20462;-63
2023/09/17 11:21:38;;;;;;;1.53;1.10;;;28.00;52.00;;;;;;5052307;28;20534;-63
2023/09/17 11:24:06;;;;;;;1.63;1.50;;;27.40;52.10;;;;;;5051974;28;20434;-63
2023/09/17 11:26:34;;;;;;;0.97;0.97;;;27.10;52.70;;;;;;5051630;28;20528;-63
2023/09/17 11:29:06;;;;;;;1.00;0.90;;;26.80;53.20;;;;;;5051876;28;20408;-63
2023/09/17 11:31:50;;;;;;;0.73;0.73;;;26.70;53.20;;;;;;5051309;28;20401;-62
2023/09/17 11:34:16;;;;;;;1.07;0.67;;;26.70;52.70;;;;;;5051847;28;20432;-63
2023/09/17 11:36:41;;;;;;;0.93;0.93;;;26.60;51.90;;;;;;5050700;28;20498;-63
2023/09/17 11:39:07;;;;;;;2.07;1.10;;;26.70;53.90;;;;;;5051189;28;20761;-63
2023/09/17 11:41:36;;;;;;;1.10;1.00;;;26.60;53.20;;;;;;5050630;28;20166;-63
2023/09/17 11:44:04;;;;;;;0.83;0.80;;;26.40;55.00;;;;;;5050007;28;20401;-63
2023/09/17 11:46:30;;;;;;;0.93;0.80;;;26.60;57.10;;;;;;5050467;28;20517;-63
2023/09/17 11:48:56;;;;;;;1.63;0.60;;;26.90;53.70;;;;;;5050101;28;20504;-63
2023/09/17 11:51:37;;;;;;;2.90;1.13;;;27.10;55.00;;;;;;5049672;28;20396;-64
2023/09/17 11:54:07;;;;;;;0.80;0.80;;;27.50;54.30;;;;;;5050417;28;20257;-64
2023/09/17 11:56:35;;;;;;;1.63;1.07;;;27.60;53.00;;;;;;5050497;28;20434;-63
2023/09/17 11:59:10;;;;;;;1.30;1.20;;;27.60;52.50;;;;;;5050175;28;20485;-63
2023/09/17 12:01:43;;;;;;;0.90;0.90;;;27.80;55.20;;;;;;5051868;28;20405;-64
2023/09/17 12:04:10;;;;;;;3.37;0.90;;;28.10;52.60;;;;;;5051514;28;20404;-64
2023/09/17 12:06:41;;;;;;;1.07;0.70;;;28.30;53.90;;;;;;5050948;28;20448;-64
2023/09/17 12:09:15;;;;;;;1.23;1.10;;;28.30;56.10;;;;;;5051345;28;20491;-63
2023/09/17 12:11:44;;;;;;;2.30;1.07;;;28.30;53.20;;;;;;5050895;28;20402;-63
2023/09/17 12:14:10;;;;;;;1.23;1.10;;;28.20;51.80;;;;;;5051622;28;20412;-64
2023/09/17 12:16:36;;;;;;;0.90;0.90;;;27.90;51.30;;;;;;5050879;28;20964;-64
2023/09/17 12:19:02;;;;;;;0.83;0.83;;;27.80;53.50;;;;;;5051338;28;20495;-63
2023/09/17 12:21:30;;;;;;;0.80;0.73;;;27.60;52.70;;;;;;5051016;28;20174;-63
2023/09/17 12:24:05;;;;;;;2.20;0.83;;;27.20;53.20;;;;;;5051015;28;20416;-63
2023/09/17 12:27:40;;;;;;;1.80;1.37;;;27.20;55.70;;;;;;5050584;28;20428;-63
2023/09/17 12:29:47;;;;;;;0.63;0.63;;;27.10;60.20;;;;;;5042446;28;20420;-63
2023/09/17 12:32:16;;;;;;;1.30;0.90;;;27.10;55.60;;;;;;5050408;28;20480;-63
2023/09/17 12:34:42;;;;;;;0.83;0.83;;;27.10;55.60;;;;;;5051161;28;20462;-63
2023/09/17 12:37:09;;;;;;;0.80;0.80;;;27.00;56.50;;;;;;5050513;28;20437;-63
2023/09/17 12:39:35;;;;;;;1.00;1.00;;;26.80;56.80;;;;;;5051213;28;20253;-63
2023/09/17 12:42:00;;;;;;;0.70;0.70;;;26.60;54.20;;;;;;5051113;28;20852;-63
2023/09/17 12:44:26;;;;;;;0.80;0.80;;;26.80;61.40;;;;;;5050748;28;20596;-63
2023/09/17 12:46:52;;;;;;;0.93;0.93;;;26.80;64.40;;;;;;5050490;28;20695;-63
2023/09/17 12:49:21;;;;;;;1.00;0.70;;;26.60;57.50;;;;;;5050950;28;20412;-63